Time;durP1;ratioP1;P1;durP2;ratioP2;P2;SDS_P1;SDS_P2;PMS_P1;PMS_P2;Temp;Humidity;BMP_temperature;BMP_pressure;BME280_temperature;BME280_humidity;BME280_pressure;Samples;Min_cycle;Max_cycle;Signal;HPM_P1;HPM_P2
2020/12/01 00:01:38;;;;;;;39.25;16.77;;;;;;;1.01;nan;96683.25;4970267;28;20222;-44
2020/12/01 00:04:06;;;;;;;42.60;16.58;;;;;;;0.94;nan;96671.47;4967494;28;20199;-45
2020/12/01 00:06:33;;;;;;;35.33;14.45;;;;;;;0.95;nan;96668.03;4956963;28;20610;-44
2020/12/01 00:09:00;;;;;;;45.22;17.63;;;;;;;0.93;nan;96659.53;4956255;28;20690;-46
2020/12/01 00:11:27;;;;;;;37.75;16.23;;;;;;;0.94;nan;96650.13;4955543;28;20222;-43
2020/12/01 00:13:54;;;;;;;33.70;16.27;;;;;;;1.04;nan;96649.88;4955955;28;20198;-44
2020/12/01 00:16:21;;;;;;;37.85;15.27;;;;;;;1.12;nan;96645.38;4955122;28;20587;-43
2020/12/01 00:18:47;;;;;;;38.05;16.75;;;;;;;1.05;nan;96641.28;4955064;28;20765;-44
2020/12/01 00:21:18;;;;;;;46.13;18.02;;;;;;;1.02;nan;96627.72;4955641;28;20960;-44
2020/12/01 00:23:45;;;;;;;33.97;15.93;;;;;;;1.02;nan;96628.56;4956754;28;20516;-44
2020/12/01 00:29:09;;;;;;;35.10;15.27;;;;;;;1.00;nan;96614.13;5034829;23;20699;-39
2020/12/01 00:31:38;;;;;;;45.28;18.67;;;;;;;0.91;nan;96615.19;4995274;28;20217;-39
2020/12/01 00:34:05;;;;;;;43.22;15.75;;;;;;;0.83;nan;96590.66;5005029;28;20667;-38
2020/12/01 00:36:33;;;;;;;40.58;18.05;;;;;;;0.98;nan;96593.66;5006740;28;20725;-38
2020/12/01 00:39:00;;;;;;;45.05;18.08;;;;;;;0.94;nan;96586.94;5004936;28;20577;-39
2020/12/01 00:41:27;;;;;;;42.72;18.10;;;;;;;0.99;nan;96591.94;5005866;28;20776;-39
2020/12/01 00:43:54;;;;;;;48.92;18.58;;;;;;;0.95;nan;96573.25;5002852;28;20231;-39
2020/12/01 00:46:38;;;;;;;39.75;18.38;;;;;;;1.05;nan;96572.13;5034436;28;20248;-43
2020/12/01 00:49:19;;;;;;;45.03;16.38;;;;;;;1.06;nan;96568.72;5046611;28;20236;-43
2020/12/01 00:55:48;;;;;;;43.90;17.50;;;;;;;0.99;nan;96535.59;5026764;28;20232;-43
2020/12/01 00:58:39;;;;;;;47.15;17.98;;;;;;;1.13;nan;96551.44;5051906;28;20242;-39
2020/12/01 01:01:19;;;;;;;46.08;18.35;;;;;;;1.14;nan;96553.97;5012284;28;20681;-39
2020/12/01 01:03:47;;;;;;;47.30;18.42;;;;;;;1.11;nan;96546.34;5009092;28;20695;-39
2020/12/01 01:06:15;;;;;;;40.35;17.90;;;;;;;1.17;nan;96540.22;5008068;28;20232;-38
2020/12/01 01:08:43;;;;;;;41.78;17.42;;;;;;;1.17;nan;96540.22;5010282;28;20593;-39
2020/12/01 01:11:11;;;;;;;43.45;16.83;;;;;;;1.28;nan;96539.06;5008588;28;20221;-38
2020/12/01 01:13:38;;;;;;;41.40;18.63;;;;;;;1.31;nan;96521.03;5010481;28;20284;-39
2020/12/01 01:16:07;;;;;;;37.03;14.07;;;;;;;1.42;nan;96536.13;5008036;28;20229;-39
2020/12/01 01:18:34;;;;;;;35.22;15.95;;;;;;;1.44;nan;96540.31;5007998;28;20735;-39
2020/12/01 01:21:01;;;;;;;29.65;13.00;;;;;;;1.52;nan;96543.50;5009235;28;20221;-38
2020/12/01 01:23:28;;;;;;;34.83;14.10;;;;;;;1.52;nan;96553.78;5008815;28;20233;-39
2020/12/01 01:25:56;;;;;;;20.92;9.00;;;;;;;1.54;nan;96554.56;5008995;28;20598;-39
2020/12/01 01:28:22;;;;;;;24.30;11.10;;;;;;;1.61;nan;96553.50;5005113;28;20687;-39
2020/12/01 01:30:49;;;;;;;21.70;11.02;;;;;;;1.63;nan;96556.84;5008010;28;20640;-39
2020/12/01 01:33:16;;;;;;;27.45;11.95;;;;;;;1.67;nan;96537.94;5005173;28;20709;-39
2020/12/01 01:35:43;;;;;;;23.10;10.93;;;;;;;1.70;nan;96537.84;5007876;28;20541;-40
2020/12/01 01:38:10;;;;;;;25.75;12.15;;;;;;;1.73;nan;96537.78;5005760;28;20531;-39
2020/12/01 01:44:48;;;;;;;27.38;13.32;;;;;;;1.82;nan;96523.81;5080504;23;20221;-39
2020/12/01 01:47:20;;;;;;;29.00;14.13;;;;;;;1.79;nan;96514.53;4962390;28;20233;-39
2020/12/01 01:49:51;;;;;;;33.53;14.77;;;;;;;1.76;nan;96512.03;4969841;28;20615;-39
2020/12/01 01:52:22;;;;;;;34.80;13.43;;;;;;;1.81;nan;96504.19;4958241;28;20203;-39
2020/12/01 01:54:56;;;;;;;32.67;14.43;;;;;;;1.89;nan;96502.25;4959169;28;20672;-39
2020/12/01 01:57:23;;;;;;;30.05;13.32;;;;;;;1.92;nan;96503.00;4962193;28;20230;-39
2020/12/01 01:59:52;;;;;;;30.80;13.32;;;;;;;1.98;nan;96494.28;4959271;28;20700;-39
2020/12/01 02:02:20;;;;;;;33.42;14.70;;;;;;;2.00;nan;96484.81;4959542;28;20230;-40
2020/12/01 02:04:48;;;;;;;33.65;14.18;;;;;;;2.05;nan;96477.81;4959218;28;20759;-44
2020/12/01 02:07:15;;;;;;;30.27;14.27;;;;;;;2.12;nan;96472.44;4958366;28;20692;-44
2020/12/01 02:09:47;;;;;;;27.88;13.38;;;;;;;2.14;nan;96468.09;4958138;28;20730;-43
2020/12/01 02:12:18;;;;;;;34.08;14.38;;;;;;;2.18;nan;96459.41;4957441;28;20599;-43
2020/12/01 02:14:49;;;;;;;34.13;15.90;;;;;;;2.19;nan;96455.94;4958685;28;20664;-43
2020/12/01 02:17:21;;;;;;;33.38;13.55;;;;;;;2.21;nan;96436.19;4955462;28;20218;-44
2020/12/01 02:19:50;;;;;;;26.02;11.65;;;;;;;2.04;nan;96410.25;4958330;28;20677;-43
2020/12/01 02:22:20;;;;;;;26.35;13.15;;;;;;;2.13;nan;96430.47;4956459;28;20213;-44
2020/12/01 02:24:48;;;;;;;23.67;11.25;;;;;;;2.08;nan;96424.69;4957831;28;20218;-43
2020/12/01 02:27:19;;;;;;;24.08;10.73;;;;;;;2.07;nan;96407.56;4956103;28;20192;-44
2020/12/01 02:29:50;;;;;;;25.20;9.98;;;;;;;2.10;nan;96412.63;4958353;28;20230;-44
2020/12/01 02:32:18;;;;;;;24.48;10.30;;;;;;;1.85;nan;96378.34;4959022;28;20198;-44
2020/12/01 02:34:48;;;;;;;25.75;11.63;;;;;;;2.00;nan;96383.00;4957757;28;20288;-44
2020/12/01 02:37:17;;;;;;;23.00;9.38;;;;;;;2.03;nan;96388.03;4958256;28;20609;-45
2020/12/01 02:39:45;;;;;;;27.48;11.98;;;;;;;1.96;nan;96380.56;4958071;28;20652;-44
2020/12/01 02:42:15;;;;;;;21.35;10.02;;;;;;;1.98;nan;96371.13;4957410;28;20242;-44
2020/12/01 02:44:43;;;;;;;24.25;11.63;;;;;;;1.91;nan;96373.03;4957380;28;20223;-43
2020/12/01 02:47:10;;;;;;;25.42;11.18;;;;;;;1.93;nan;96363.56;4958028;28;20654;-44
2020/12/01 02:49:37;;;;;;;23.38;11.00;;;;;;;1.88;nan;96360.31;4957322;28;20264;-43
2020/12/01 02:52:05;;;;;;;23.60;11.77;;;;;;;1.89;nan;96359.41;4957888;28;20285;-44
2020/12/01 02:54:32;;;;;;;26.92;11.98;;;;;;;1.96;nan;96353.22;4957584;28;20276;-43
2020/12/01 02:56:59;;;;;;;29.58;12.95;;;;;;;1.88;nan;96328.69;4957920;28;20203;-44
2020/12/01 02:59:26;;;;;;;28.25;11.68;;;;;;;2.05;nan;96345.19;4958053;28;20252;-43
2020/12/01 03:01:54;;;;;;;23.10;11.07;;;;;;;2.01;nan;96343.63;4960454;28;20728;-44
2020/12/01 03:04:21;;;;;;;23.75;10.60;;;;;;;2.00;nan;96341.13;4957397;28;20203;-44
2020/12/01 03:06:48;;;;;;;23.27;11.38;;;;;;;1.85;nan;96321.91;4957706;28;20832;-44
2020/12/01 03:09:17;;;;;;;21.40;9.65;;;;;;;1.99;nan;96329.19;4957893;28;20510;-43
2020/12/01 03:11:45;;;;;;;22.02;10.48;;;;;;;1.99;nan;96337.69;4955556;28;20773;-44
2020/12/01 03:14:12;;;;;;;20.88;10.52;;;;;;;1.95;nan;96331.00;4957125;28;20698;-43
2020/12/01 03:16:39;;;;;;;24.38;10.57;;;;;;;2.00;nan;96331.66;4957346;28;20227;-44
2020/12/01 03:19:08;;;;;;;21.48;9.80;;;;;;;2.01;nan;96317.97;4956415;28;20582;-46
2020/12/01 03:21:34;;;;;;;21.13;10.60;;;;;;;2.04;nan;96319.56;4955331;28;20980;-43
2020/12/01 03:24:02;;;;;;;15.68;8.07;;;;;;;2.03;nan;96318.75;4954593;28;20190;-44
2020/12/01 03:26:29;;;;;;;18.48;8.35;;;;;;;2.03;nan;96320.47;4956882;28;20261;-38
2020/12/01 03:28:56;;;;;;;18.25;8.23;;;;;;;2.06;nan;96315.25;4956885;28;20615;-39
2020/12/01 03:31:23;;;;;;;19.17;8.93;;;;;;;2.07;nan;96306.66;4955366;28;20296;-39
2020/12/01 03:33:50;;;;;;;16.08;7.05;;;;;;;2.13;nan;96303.91;4956627;28;20653;-39
2020/12/01 03:36:19;;;;;;;20.73;7.22;;;;;;;2.15;nan;96284.13;4954254;28;20293;-39
2020/12/01 03:38:46;;;;;;;19.35;6.78;;;;;;;2.15;nan;96291.84;4956849;28;20652;-39
2020/12/01 03:41:14;;;;;;;12.77;5.82;;;;;;;2.16;nan;96291.81;4956405;28;21049;-39
2020/12/01 03:43:42;;;;;;;17.27;6.30;;;;;;;2.10;nan;96294.56;4956437;28;20229;-38
2020/12/01 03:46:09;;;;;;;14.65;6.63;;;;;;;2.16;nan;96281.53;4956030;28;20312;-39
2020/12/01 03:48:36;;;;;;;9.90;5.25;;;;;;;2.20;nan;96283.09;4956306;28;20281;-39
2020/12/01 03:51:03;;;;;;;11.48;5.43;;;;;;;2.16;nan;96286.66;4954217;28;20281;-39
2020/12/01 03:53:31;;;;;;;11.95;5.97;;;;;;;2.12;nan;96282.50;4956586;28;20705;-39
2020/12/01 03:55:57;;;;;;;12.75;5.70;;;;;;;2.18;nan;96284.88;4954879;28;20651;-39
2020/12/01 03:58:24;;;;;;;10.15;4.90;;;;;;;2.23;nan;96282.16;4956839;28;20670;-39
2020/12/01 04:00:51;;;;;;;13.50;5.97;;;;;;;2.21;nan;96277.06;4954344;28;20562;-39
2020/12/01 04:03:18;;;;;;;10.00;5.25;;;;;;;2.25;nan;96291.47;4955825;28;20286;-39
2020/12/01 04:05:45;;;;;;;10.00;4.85;;;;;;;2.25;nan;96288.91;4955437;28;20254;-39
2020/12/01 04:08:12;;;;;;;8.75;4.63;;;;;;;2.30;nan;96294.72;4956705;28;20677;-40
2020/12/01 04:10:40;;;;;;;10.90;6.13;;;;;;;2.28;nan;96291.34;4956516;28;20775;-39
2020/12/01 04:13:07;;;;;;;13.70;6.25;;;;;;;2.28;nan;96290.53;4954064;28;20515;-39
2020/12/01 04:15:34;;;;;;;14.25;5.60;;;;;;;2.33;nan;96284.34;4955223;28;20612;-39
2020/12/01 04:18:01;;;;;;;13.23;6.25;;;;;;;2.36;nan;96279.09;4955822;28;20290;-39
2020/12/01 04:20:28;;;;;;;10.85;5.88;;;;;;;2.47;nan;96282.13;4955733;28;20704;-39
2020/12/01 04:22:55;;;;;;;9.15;4.72;;;;;;;2.52;nan;96276.81;4955348;28;20198;-40
2020/12/01 04:25:24;;;;;;;13.88;6.55;;;;;;;2.50;nan;96271.72;4955710;28;20246;-39
2020/12/01 04:27:53;;;;;;;12.27;5.88;;;;;;;2.50;nan;96271.72;4953874;28;20584;-39
2020/12/01 04:30:23;;;;;;;13.50;6.60;;;;;;;2.58;nan;96267.16;4955555;28;20688;-39
2020/12/01 04:32:51;;;;;;;11.80;6.43;;;;;;;2.65;nan;96270.34;4955542;28;20198;-39
2020/12/01 04:35:21;;;;;;;15.32;5.90;;;;;;;2.77;nan;96268.16;4955133;28;20596;-40
2020/12/01 04:37:48;;;;;;;11.20;5.80;;;;;;;2.85;nan;96273.84;4959450;28;20565;-45
2020/12/01 04:40:19;;;;;;;17.00;5.70;;;;;;;2.99;nan;96276.75;4958197;28;20744;-44
2020/12/01 04:43:28;;;;;;;13.48;5.82;;;;;;;2.98;nan;96277.66;4975352;28;20628;-40
2020/12/01 04:45:56;;;;;;;16.58;6.05;;;;;;;2.88;nan;96268.59;4974921;28;20242;-39
2020/12/01 04:48:33;;;;;;;12.00;6.55;;;;;;;2.91;nan;96263.34;4969438;28;20199;-40
2020/12/01 04:51:09;;;;;;;15.02;7.53;;;;;;;2.99;nan;96271.59;5150495;23;20515;-43
2020/12/01 04:54:01;;;;;;;14.88;6.10;;;;;;;3.03;nan;96262.88;4986226;28;20596;-45
2020/12/01 04:57:02;;;;;;;21.95;8.52;;;;;;;2.93;nan;96268.44;4984074;28;20680;-45
2020/12/01 05:00:01;;;;;;;12.70;6.28;;;;;;;3.02;nan;96260.38;4984447;28;20667;-44
2020/12/01 05:02:47;;;;;;;17.48;6.10;;;;;;;3.01;nan;96254.38;4989890;28;20626;-45
2020/12/01 05:05:40;;;;;;;12.88;6.45;;;;;;;2.95;nan;96259.75;4982722;28;20222;-45
2020/12/01 05:08:31;;;;;;;10.75;5.68;;;;;;;2.95;nan;96258.94;4981030;28;20210;-45
2020/12/01 05:11:01;;;;;;;13.45;7.47;;;;;;;2.99;nan;96251.03;4984354;28;20225;-44
2020/12/01 05:13:30;;;;;;;13.27;6.47;;;;;;;3.02;nan;96253.47;4985421;28;20286;-45
2020/12/01 05:16:08;;;;;;;15.20;6.68;;;;;;;3.01;nan;96254.38;4983275;28;20702;-44
2020/12/01 05:18:35;;;;;;;11.98;5.60;;;;;;;3.04;nan;96254.28;4982088;28;20308;-44
2020/12/01 05:21:04;;;;;;;13.77;6.28;;;;;;;3.04;nan;96249.16;4983148;28;20340;-44
2020/12/01 05:23:36;;;;;;;12.13;6.38;;;;;;;2.99;nan;96245.91;4983855;28;20385;-45
2020/12/01 05:26:05;;;;;;;16.70;6.55;;;;;;;3.02;nan;96245.78;4983848;28;20232;-44
2020/12/01 05:28:43;;;;;;;12.75;6.55;;;;;;;3.02;nan;96250.91;4987258;28;20255;-45
2020/12/01 05:31:11;;;;;;;11.73;6.53;;;;;;;3.05;nan;96245.66;4983690;28;20615;-44
2020/12/01 05:33:37;;;;;;;16.73;6.32;;;;;;;3.04;nan;96244.00;4986615;28;20285;-44
2020/12/01 05:36:18;;;;;;;57.30;23.95;;;;;;;3.06;nan;96254.19;4987231;28;20622;-44
2020/12/01 05:38:58;;;;;;;19.30;9.95;;;;;;;3.07;nan;96259.28;4991983;28;20719;-45
2020/12/01 05:41:29;;;;;;;17.45;7.85;;;;;;;3.11;nan;96253.16;4987472;28;20584;-44
2020/12/01 05:43:59;;;;;;;13.38;6.38;;;;;;;3.07;nan;96255.88;4987860;28;20659;-44
2020/12/01 05:46:34;;;;;;;10.65;5.88;;;;;;;3.09;nan;96254.94;4987080;28;20225;-45
2020/12/01 05:49:05;;;;;;;13.77;6.32;;;;;;;3.11;nan;96255.72;4988418;28;20204;-45
2020/12/01 05:51:40;;;;;;;11.18;5.72;;;;;;;3.11;nan;96253.16;4988918;28;20299;-44
2020/12/01 05:54:15;;;;;;;8.93;5.18;;;;;;;3.07;nan;96256.72;4983965;28;20435;-45
2020/12/01 05:56:50;;;;;;;21.65;5.80;;;;;;;3.18;nan;96262.31;4984585;28;20692;-45
2020/12/01 05:59:20;;;;;;;11.68;5.30;;;;;;;3.07;nan;96259.28;4988750;28;20287;-44
2020/12/01 06:01:51;;;;;;;10.98;5.57;;;;;;;3.03;nan;96250.00;4986899;28;20210;-44
2020/12/01 06:04:20;;;;;;;11.50;6.28;;;;;;;3.01;nan;96246.66;4985072;28;20618;-40
2020/12/01 06:07:05;;;;;;;10.65;5.20;;;;;;;2.94;nan;96246.97;4987598;28;20639;-39
2020/12/01 06:09:43;;;;;;;14.27;6.13;;;;;;;3.00;nan;96245.00;4988021;28;20710;-39
2020/12/01 06:12:20;;;;;;;10.45;5.50;;;;;;;2.99;nan;96245.06;4986312;28;20241;-40
2020/12/01 06:14:55;;;;;;;9.27;5.55;;;;;;;3.03;nan;96239.72;4986623;28;20734;-39
2020/12/01 06:17:38;;;;;;;10.90;5.00;;;;;;;3.03;nan;96238.91;4985960;28;20718;-39
2020/12/01 06:20:17;;;;;;;9.48;5.18;;;;;;;3.10;nan;96241.16;4983421;28;20560;-39
2020/12/01 06:23:09;;;;;;;10.55;5.55;;;;;;;3.03;nan;96226.88;4986679;28;20295;-39
2020/12/01 06:25:50;;;;;;;12.70;5.72;;;;;;;3.15;nan;96249.56;4985521;28;20297;-39
2020/12/01 06:28:50;;;;;;;10.60;5.65;;;;;;;3.17;nan;96254.66;4984809;28;20189;-39
2020/12/01 06:31:36;;;;;;;12.52;5.80;;;;;;;3.09;nan;96242.06;4984481;28;20225;-39
2020/12/01 06:34:29;;;;;;;12.48;5.65;;;;;;;3.02;nan;96240.63;4985172;28;20656;-39
2020/12/01 06:37:19;;;;;;;11.10;6.20;;;;;;;3.11;nan;96244.59;4986952;28;20696;-39
2020/12/01 06:39:52;;;;;;;24.00;6.85;;;;;;;3.08;nan;96247.28;4984928;28;20221;-39
2020/12/01 06:42:26;;;;;;;10.23;5.85;;;;;;;3.07;nan;96238.72;4984305;28;20193;-40
2020/12/01 06:44:58;;;;;;;11.55;5.97;;;;;;;3.07;nan;96240.44;4985813;28;20698;-39
2020/12/01 06:47:29;;;;;;;13.13;7.35;;;;;;;3.07;nan;96240.44;4990091;28;20591;-39
2020/12/01 06:50:02;;;;;;;12.48;6.32;;;;;;;3.07;nan;96243.88;4985266;28;20256;-39
2020/12/01 06:52:29;;;;;;;12.32;6.50;;;;;;;3.08;nan;96248.13;4985931;28;20237;-39
2020/12/01 06:54:57;;;;;;;16.48;7.13;;;;;;;3.05;nan;96240.53;4986388;28;20585;-39
2020/12/01 06:57:28;;;;;;;12.82;6.65;;;;;;;3.00;nan;96246.75;4985591;28;20911;-39
2020/12/01 06:59:55;;;;;;;10.93;5.65;;;;;;;2.99;nan;96238.19;4985473;28;20736;-39
2020/12/01 07:02:29;;;;;;;8.57;4.53;;;;;;;3.08;nan;96240.41;4987696;28;20287;-39
2020/12/01 07:05:10;;;;;;;10.60;5.78;;;;;;;3.09;nan;96242.06;4986422;28;20221;-39
2020/12/01 07:07:40;;;;;;;9.65;5.40;;;;;;;3.12;nan;96241.97;4982237;28;20225;-39
2020/12/01 07:10:20;;;;;;;10.43;6.20;;;;;;;3.13;nan;96237.66;4981869;28;20288;-39
2020/12/01 07:12:54;;;;;;;14.25;6.15;;;;;;;3.18;nan;96240.88;4982329;28;20248;-39
2020/12/01 07:15:29;;;;;;;14.07;7.28;;;;;;;3.18;nan;96248.59;4983852;28;20679;-39
2020/12/01 07:18:08;;;;;;;17.75;7.30;;;;;;;3.11;nan;96245.44;4985619;28;20860;-39
2020/12/01 07:20:44;;;;;;;15.82;7.70;;;;;;;3.12;nan;96244.53;4982520;28;20316;-39
2020/12/01 07:23:22;;;;;;;14.90;7.80;;;;;;;3.16;nan;96240.94;4986253;28;20396;-39
2020/12/01 07:25:58;;;;;;;13.13;7.35;;;;;;;3.13;nan;96238.50;4986180;28;20253;-39
2020/12/01 07:28:33;;;;;;;19.33;7.43;;;;;;;3.18;nan;96252.03;4984990;28;20276;-39
2020/12/01 07:31:04;;;;;;;17.25;7.50;;;;;;;3.13;nan;96243.63;4987043;28;20623;-39
2020/12/01 07:33:33;;;;;;;25.77;8.68;;;;;;;3.21;nan;96245.91;4987382;28;20260;-39
2020/12/01 07:36:15;;;;;;;18.08;7.72;;;;;;;2.99;nan;96243.34;4984905;28;20656;-39
2020/12/01 07:39:09;;;;;;;14.50;7.68;;;;;;;3.04;nan;96241.44;4985902;28;20719;-45
2020/12/01 07:41:47;;;;;;;15.10;7.85;;;;;;;3.06;nan;96243.91;4984602;28;20294;-40
2020/12/01 07:44:18;;;;;;;14.18;8.05;;;;;;;3.08;nan;96253.25;4989061;28;20204;-43
2020/12/01 07:46:53;;;;;;;14.25;7.30;;;;;;;3.14;nan;96249.59;4984002;28;20234;-43
2020/12/01 07:49:23;;;;;;;13.00;6.40;;;;;;;3.14;nan;96254.75;4978833;28;20711;-43
2020/12/01 07:51:55;;;;;;;12.68;6.78;;;;;;;3.18;nan;96259.72;4985101;28;20697;-43
2020/12/01 07:54:26;;;;;;;15.02;7.57;;;;;;;3.22;nan;96261.28;4985593;28;20189;-42
2020/12/01 07:56:53;;;;;;;10.15;5.93;;;;;;;3.20;nan;96263.06;4986313;28;20674;-45
2020/12/01 08:02:25;;;;;;;12.18;5.75;;;;;;;3.25;nan;96268.88;4935235;28;20210;-39
2020/12/01 08:05:04;;;;;;;11.95;7.45;;;;;;;2.75;nan;96171.47;4936056;28;20668;-39
2020/12/01 08:07:31;;;;;;;13.05;6.55;;;;;;;3.31;nan;96263.47;4943924;28;20553;-44
2020/12/01 08:10:04;;;;;;;14.73;7.43;;;;;;;3.33;nan;96256.56;4936163;28;20783;-44
2020/12/01 08:12:35;;;;;;;13.73;6.63;;;;;;;3.37;nan;96255.53;4935573;28;20223;-44
2020/12/01 08:15:04;;;;;;;11.68;6.47;;;;;;;3.40;nan;96252.00;4934887;28;20273;-44
2020/12/01 08:17:34;;;;;;;14.68;6.85;;;;;;;3.36;nan;96259.00;4937631;28;20610;-45
2020/12/01 08:20:04;;;;;;;15.15;6.85;;;;;;;3.40;nan;96260.56;4935390;28;20227;-44
2020/12/01 08:22:35;;;;;;;15.35;6.30;;;;;;;3.17;nan;96224.63;4936156;28;20199;-44
2020/12/01 08:25:05;;;;;;;13.13;5.53;;;;;;;3.42;nan;96261.34;4936509;28;20223;-44
2020/12/01 08:27:43;;;;;;;14.05;6.55;;;;;;;3.40;nan;96252.84;4933306;28;20191;-44
2020/12/01 08:30:22;;;;;;;12.20;6.18;;;;;;;3.39;nan;96258.06;4934547;28;20309;-44
2020/12/01 08:32:53;;;;;;;13.10;6.40;;;;;;;3.41;nan;96263.97;4935437;28;20612;-44
2020/12/01 08:35:27;;;;;;;15.57;8.68;;;;;;;3.43;nan;96260.44;4934471;28;20744;-44
2020/12/01 08:38:03;;;;;;;22.38;11.55;;;;;;;3.47;nan;96259.44;4937504;28;20538;-45
2020/12/01 08:40:37;;;;;;;16.95;8.00;;;;;;;3.31;nan;96257.53;4935932;28;20229;-44
2020/12/01 08:43:26;;;;;;;15.70;7.32;;;;;;;3.35;nan;96265.03;4934276;28;20637;-38
2020/12/01 08:46:10;;;;;;;12.80;6.28;;;;;;;3.40;nan;96260.56;4935393;28;20225;-38
2020/12/01 08:48:45;;;;;;;12.75;6.35;;;;;;;3.45;nan;96266.34;4934150;28;20897;-39
2020/12/01 08:51:27;;;;;;;12.02;6.18;;;;;;;3.54;nan;96260.81;4935590;28;20234;-38
2020/12/01 08:54:04;;;;;;;12.35;5.50;;;;;;;3.54;nan;96258.25;4935792;28;20718;-38
2020/12/01 08:57:01;;;;;;;10.70;6.03;;;;;;;3.45;nan;96261.19;4936027;28;20317;-38
2020/12/01 08:59:34;;;;;;;10.98;6.05;;;;;;;3.51;nan;96260.97;4936577;28;20608;-38
2020/12/01 09:02:53;;;;;;;12.48;5.80;;;;;;;3.56;nan;96264.19;5043290;23;20472;-38
2020/12/01 09:05:28;;;;;;;10.63;6.47;;;;;;;3.67;nan;96259.44;4981345;28;20221;-40
2020/12/01 09:08:34;;;;;;;20.98;5.45;;;;;;;3.69;nan;96260.25;4983821;28;20202;-38
2020/12/01 09:14:10;;;;;;;73.05;35.42;;;;;;;3.76;nan;96260.81;4990706;28;20251;-44
2020/12/01 09:19:55;;;;;;;6.90;4.03;;;;;;;3.77;nan;96260.75;4965182;28;20206;-44
2020/12/01 09:22:26;;;;;;;5.75;3.45;;;;;;;3.69;nan;96264.53;4971574;28;20748;-38
2020/12/01 09:25:06;;;;;;;7.78;3.63;;;;;;;3.59;nan;96269.22;4968171;28;20230;-38
2020/12/01 09:27:35;;;;;;;6.13;3.92;;;;;;;3.50;nan;96261.88;4971369;28;20768;-38
2020/12/01 09:30:04;;;;;;;6.10;4.45;;;;;;;3.59;nan;96279.50;4968907;28;20219;-38
2020/12/01 09:32:31;;;;;;;119.50;36.63;;;;;;;3.70;nan;96282.50;4969881;28;20919;-38
2020/12/01 09:34:57;;;;;;;40.78;14.10;;;;;;;3.71;nan;96286.72;4967525;28;20230;-38
2020/12/01 09:37:25;;;;;;;34.53;13.05;;;;;;;3.78;nan;96279.59;4966347;28;20282;-38
2020/12/01 09:39:52;;;;;;;14.10;6.40;;;;;;;3.70;nan;96287.63;4967296;28;20592;-38
2020/12/01 09:42:26;;;;;;;9.10;4.32;;;;;;;3.72;nan;96290.13;4969136;28;20666;-40
2020/12/01 09:47:40;;;;;;;83.20;23.00;;;;;;;3.73;nan;96282.34;4961005;28;20258;-38
2020/12/01 09:50:12;;;;;;;26.60;8.00;;;;;;;3.77;nan;96283.91;4967216;28;20220;-38
2020/12/01 09:52:54;;;;;;;19.42;6.78;;;;;;;3.85;nan;96289.59;4964025;28;20639;-37
2020/12/01 09:55:36;;;;;;;30.63;11.23;;;;;;;3.97;nan;96285.69;4973673;28;20730;-38
2020/12/01 09:58:11;;;;;;;21.80;7.10;;;;;;;3.93;nan;96272.91;4966576;28;20209;-37
2020/12/01 10:08:50;;;;;;;9.02;4.47;;;;;;;3.98;nan;96288.16;4964924;28;20242;-40
2020/12/01 10:11:34;;;;;;;5.35;3.22;;;;;;;3.81;nan;96285.44;4966312;28;20252;-37
2020/12/01 10:14:16;;;;;;;8.95;3.38;;;;;;;3.74;nan;96301.22;4967434;28;20523;-38
2020/12/01 10:36:34;;;;;;;3.72;2.60;;;;;;;3.81;nan;96292.34;4968712;28;20629;-37
2020/12/01 10:39:02;;;;;;;5.85;3.60;;;;;;;3.79;nan;96292.41;4979328;28;20264;-46
2020/12/01 10:41:33;;;;;;;6.72;3.90;;;;;;;3.68;nan;96286.84;4965709;28;20233;-49
2020/12/01 10:44:01;;;;;;;5.68;3.67;;;;;;;3.69;nan;96285.97;4971995;28;20218;-51
2020/12/01 10:46:29;;;;;;;6.55;3.25;;;;;;;3.76;nan;96287.38;4973190;28;20261;-49
2020/12/01 10:48:56;;;;;;;6.50;4.15;;;;;;;3.90;nan;96289.41;4966443;28;20652;-49
2020/12/01 10:51:23;;;;;;;7.72;5.07;;;;;;;3.93;nan;96296.06;4966297;28;20742;-49
2020/12/01 10:53:50;;;;;;;7.75;3.90;;;;;;;3.97;nan;96295.97;4972145;28;20753;-50
2020/12/01 10:56:17;;;;;;;8.68;4.40;;;;;;;4.04;nan;96295.63;4970143;28;20760;-44
2020/12/01 10:58:45;;;;;;;6.85;4.22;;;;;;;4.03;nan;96296.53;4966007;28;20258;-44
2020/12/01 11:01:12;;;;;;;8.52;3.70;;;;;;;3.94;nan;96296.94;4969069;28;20545;-44
2020/12/01 11:03:39;;;;;;;4.15;2.67;;;;;;;3.71;nan;96304.75;4971915;28;20208;-44
2020/12/01 11:06:06;;;;;;;5.60;3.17;;;;;;;3.57;nan;96296.75;4966055;28;20783;-44
2020/12/01 11:08:33;;;;;;;7.63;2.92;;;;;;;3.55;nan;96303.69;4968064;28;20702;-49
2020/12/01 11:11:04;;;;;;;6.93;4.03;;;;;;;3.64;nan;96303.31;4969663;28;20648;-44
2020/12/01 11:13:30;;;;;;;8.35;4.13;;;;;;;3.69;nan;96298.84;4968105;28;20234;-44
2020/12/01 11:15:58;;;;;;;7.18;4.40;;;;;;;3.74;nan;96296.88;4965452;28;20603;-44
2020/12/01 11:18:25;;;;;;;8.40;4.00;;;;;;;3.73;nan;96297.78;4965721;28;20605;-44
2020/12/01 11:20:52;;;;;;;8.40;4.53;;;;;;;3.74;nan;96299.47;4965217;28;20320;-44
2020/12/01 11:23:25;;;;;;;6.47;4.40;;;;;;;3.74;nan;96294.31;4974067;28;20604;-45
2020/12/01 11:25:56;;;;;;;11.75;6.45;;;;;;;3.86;nan;96298.13;4965886;28;20905;-49
2020/12/01 11:28:23;;;;;;;12.05;6.75;;;;;;;3.96;nan;96300.28;4966383;28;20241;-50
2020/12/01 11:30:50;;;;;;;14.95;8.20;;;;;;;3.90;nan;96295.38;4964902;28;20758;-50
2020/12/01 11:33:18;;;;;;;15.73;7.60;;;;;;;3.79;nan;96292.41;4965229;28;20222;-49
2020/12/01 11:35:45;;;;;;;14.10;7.78;;;;;;;3.68;nan;96304.84;4966048;28;20229;-50
2020/12/01 11:38:12;;;;;;;18.98;10.85;;;;;;;3.52;nan;96314.09;4967345;28;20599;-50
2020/12/01 11:40:38;;;;;;;15.98;8.90;;;;;;;3.62;nan;96309.41;4963975;28;20636;-50
2020/12/01 11:43:05;;;;;;;15.10;7.53;;;;;;;3.66;nan;96306.66;4965835;28;20209;-50
2020/12/01 11:45:32;;;;;;;15.20;6.72;;;;;;;3.82;nan;96302.56;4964430;28;20601;-49
2020/12/01 11:47:59;;;;;;;15.02;7.00;;;;;;;3.82;nan;96284.56;4965233;28;20645;-51
2020/12/01 11:50:27;;;;;;;8.27;4.78;;;;;;;3.77;nan;96314.81;4964734;28;20249;-50
2020/12/01 11:52:53;;;;;;;11.45;5.90;;;;;;;3.80;nan;96312.09;4967310;28;20657;-49
2020/12/01 11:55:23;;;;;;;9.57;5.20;;;;;;;3.70;nan;96304.81;4962770;28;20561;-49
2020/12/01 11:57:50;;;;;;;10.20;6.07;;;;;;;3.75;nan;96314.00;4964718;28;20682;-49
2020/12/01 12:00:20;;;;;;;9.95;5.68;;;;;;;3.84;nan;96316.22;4961881;28;20230;-50
2020/12/01 12:02:47;;;;;;;7.78;4.30;;;;;;;4.01;nan;96324.09;4966211;28;20201;-49
2020/12/01 12:05:15;;;;;;;7.45;5.00;;;;;;;4.05;nan;96305.88;4965840;28;20696;-49
2020/12/01 12:07:43;;;;;;;10.65;4.68;;;;;;;4.16;nan;96315.75;4965271;28;20801;-49
2020/12/01 12:10:10;;;;;;;8.00;4.95;;;;;;;4.21;nan;96306.91;4965111;28;20605;-44
2020/12/01 12:12:36;;;;;;;9.15;5.00;;;;;;;4.26;nan;96309.28;4965786;28;20279;-44
2020/12/01 12:15:04;;;;;;;11.10;5.07;;;;;;;4.27;nan;96305.81;4959998;28;20657;-44
2020/12/01 12:17:30;;;;;;;8.27;4.55;;;;;;;4.35;nan;96302.03;4964535;28;20930;-44
2020/12/01 12:19:57;;;;;;;12.02;5.55;;;;;;;4.38;nan;96306.22;4964446;28;20724;-44
2020/12/01 12:22:24;;;;;;;12.80;4.78;;;;;;;4.37;nan;96301.97;4965972;28;20222;-44
2020/12/01 12:24:51;;;;;;;10.27;4.22;;;;;;;4.34;nan;96296.91;4965063;28;20246;-44
2020/12/01 12:27:18;;;;;;;6.75;4.60;;;;;;;4.29;nan;96298.88;4962012;28;20194;-44
2020/12/01 12:29:45;;;;;;;7.15;4.07;;;;;;;4.35;nan;96299.44;4967799;28;20312;-44
2020/12/01 12:32:12;;;;;;;8.55;4.30;;;;;;;4.37;nan;96297.63;4964698;28;20233;-44
2020/12/01 12:34:39;;;;;;;7.13;3.90;;;;;;;4.38;nan;96299.34;4965700;28;20237;-44
2020/12/01 12:37:06;;;;;;;9.25;4.13;;;;;;;4.35;nan;96283.16;4965297;28;20303;-44
2020/12/01 12:39:32;;;;;;;12.32;4.35;;;;;;;4.39;nan;96295.00;4963257;28;20246;-44
2020/12/01 12:42:00;;;;;;;7.22;4.05;;;;;;;4.40;nan;96292.38;4964691;28;20238;-44
2020/12/01 12:44:27;;;;;;;7.68;4.13;;;;;;;4.43;nan;96288.81;4965992;28;20201;-49
2020/12/01 12:46:57;;;;;;;13.32;4.30;;;;;;;4.39;nan;96289.84;4964214;28;20201;-50
2020/12/01 12:49:24;;;;;;;8.27;4.18;;;;;;;4.43;nan;96288.81;4964404;28;20633;-49
2020/12/01 12:51:51;;;;;;;12.55;4.85;;;;;;;4.49;nan;96291.09;4965028;28;20668;-49
2020/12/01 12:54:18;;;;;;;13.73;4.05;;;;;;;4.52;nan;96293.56;4961520;28;20677;-50
2020/12/01 12:56:45;;;;;;;7.88;3.90;;;;;;;4.51;nan;96291.91;4959989;28;20617;-50
2020/12/01 12:59:13;;;;;;;6.72;3.90;;;;;;;4.40;nan;96294.94;4965433;28;20300;-50
2020/12/01 13:01:40;;;;;;;7.70;3.80;;;;;;;4.47;nan;96293.78;4963183;28;20338;-50